TQQ217 OERK-HSPN
Flight info
| Callsign | TQQ217 |
|---|---|
| Flight time | 2h 57m |
| Altitude | 36000 |
| Route | UMASU DCT RGB M309 VEMEM G782 KAPAV V42 JDW B407 KAROX L311 MAHDI DCT ALKET ALKET1A |
| Aircraft | B738/M-SDE2E3FGHIRWXY/LB1 |
Departure
| Time | 2026-05-06 12:32 |
|---|---|
| Airport | King Khalid International Airport (OERK) |
Arrival
| Time | 2026-05-06 15:29 |
|---|---|
| Airport | Port Sudan New International Airport (HSPN) |
| Time | Latitude | Longitude | Altitude | Speed | Heading |
|---|---|---|---|---|---|
| 2026-05-06 11:54 | 24.94087 | 46.71423 | 2012 ft | 0 kts | 240° |
| 2026-05-06 12:23 | 24.94098 | 46.71441 | 2024 ft | 4 kts | 226° |
| 2026-05-06 12:23 | 24.94119 | 46.71459 | 2020 ft | 4 kts | 206° |
| 2026-05-06 12:24 | 24.94142 | 46.71470 | 2021 ft | 4 kts | 204° |
| 2026-05-06 12:24 | 24.94161 | 46.71482 | 2022 ft | 4 kts | 213° |
| 2026-05-06 12:24 | 24.94183 | 46.71492 | 2023 ft | 4 kts | 184° |
| 2026-05-06 12:24 | 24.94208 | 46.71488 | 2025 ft | 4 kts | 153° |
| 2026-05-06 12:25 | 24.94217 | 46.71483 | 2025 ft | 1 kts | 150° |
| 2026-05-06 12:28 | 24.94214 | 46.71489 | 2027 ft | 3 kts | 122° |
| 2026-05-06 12:29 | 24.94209 | 46.71527 | 2023 ft | 7 kts | 86° |
| 2026-05-06 12:29 | 24.94235 | 46.71593 | 2025 ft | 12 kts | 59° |
| 2026-05-06 12:29 | 24.94283 | 46.71684 | 2025 ft | 16 kts | 62° |
| 2026-05-06 12:29 | 24.94342 | 46.71797 | 2029 ft | 19 kts | 58° |
| 2026-05-06 12:30 | 24.94413 | 46.71932 | 2022 ft | 21 kts | 60° |
| 2026-05-06 12:30 | 24.94482 | 46.72064 | 2021 ft | 22 kts | 60° |
| 2026-05-06 12:30 | 24.94553 | 46.72166 | 2015 ft | 12 kts | 21° |
| 2026-05-06 12:30 | 24.94611 | 46.72146 | 2014 ft | 11 kts | 330° |
| 2026-05-06 12:31 | 24.94779 | 46.72040 | 2021 ft | 59 kts | 330° |
| 2026-05-06 12:31 | 24.95267 | 46.71731 | 2016 ft | 119 kts | 329° |
| 2026-05-06 12:31 | 24.96043 | 46.71242 | 2026 ft | 165 kts | 329° |
| 2026-05-06 12:31 | 24.97128 | 46.70546 | 2286 ft | 194 kts | 329° |
| 2026-05-06 12:32 | 24.98297 | 46.69740 | 2896 ft | 203 kts | 333° |
| 2026-05-06 12:32 | 24.99616 | 46.69276 | 3555 ft | 206 kts | 352° |
| 2026-05-06 12:32 | 25.01082 | 46.69000 | 3793 ft | 226 kts | 354° |
| 2026-05-06 12:32 | 25.02680 | 46.68630 | 3974 ft | 244 kts | 350° |
| 2026-05-06 12:33 | 25.04266 | 46.68238 | 4255 ft | 256 kts | 352° |
| 2026-05-06 12:33 | 25.06098 | 46.67852 | 4566 ft | 275 kts | 352° |
| 2026-05-06 12:33 | 25.08007 | 46.67462 | 5181 ft | 283 kts | 352° |
| 2026-05-06 12:33 | 25.09975 | 46.67052 | 5791 ft | 291 kts | 350° |
| 2026-05-06 12:34 | 25.11978 | 46.66624 | 6481 ft | 294 kts | 349° |
| 2026-05-06 12:34 | 25.13952 | 46.66199 | 7179 ft | 295 kts | 348° |
| 2026-05-06 12:34 | 25.15932 | 46.65683 | 7747 ft | 301 kts | 335° |
| 2026-05-06 12:34 | 25.17339 | 46.64667 | 8279 ft | 297 kts | 311° |
| 2026-05-06 12:35 | 25.18327 | 46.63093 | 8927 ft | 290 kts | 289° |
| 2026-05-06 12:35 | 25.18723 | 46.61015 | 9590 ft | 283 kts | 265° |
| 2026-05-06 12:35 | 25.18351 | 46.58960 | 9931 ft | 271 kts | 245° |
| 2026-05-06 12:35 | 25.17434 | 46.57186 | 9996 ft | 279 kts | 233° |
| 2026-05-06 12:36 | 25.16268 | 46.55464 | 10005 ft | 279 kts | 231° |
| 2026-05-06 12:36 | 25.14979 | 46.53885 | 9993 ft | 275 kts | 216° |
| 2026-05-06 12:36 | 25.13279 | 46.52979 | 10013 ft | 273 kts | 197° |
| 2026-05-06 12:36 | 25.11397 | 46.52699 | 10004 ft | 275 kts | 180° |
| 2026-05-06 12:37 | 25.09505 | 46.52926 | 10016 ft | 280 kts | 175° |
| 2026-05-06 12:37 | 25.07567 | 46.53250 | 10016 ft | 284 kts | 174° |
| 2026-05-06 12:37 | 25.05644 | 46.53583 | 10004 ft | 283 kts | 174° |
| 2026-05-06 12:37 | 25.03726 | 46.53911 | 10004 ft | 282 kts | 174° |
| 2026-05-06 12:38 | 25.01822 | 46.54230 | 10004 ft | 281 kts | 174° |
| 2026-05-06 12:38 | 24.99886 | 46.54548 | 10004 ft | 281 kts | 174° |
| 2026-05-06 12:38 | 24.97925 | 46.54865 | 10075 ft | 293 kts | 174° |
| 2026-05-06 12:38 | 24.95936 | 46.55182 | 10232 ft | 313 kts | 174° |
| 2026-05-06 12:39 | 24.93734 | 46.55532 | 10364 ft | 333 kts | 174° |
| 2026-05-06 12:39 | 24.91382 | 46.55907 | 10478 ft | 352 kts | 173° |
| 2026-05-06 12:39 | 24.89113 | 46.56270 | 10699 ft | 364 kts | 173° |
| 2026-05-06 12:39 | 24.86585 | 46.56674 | 11172 ft | 369 kts | 173° |
| 2026-05-06 12:40 | 24.84299 | 46.57037 | 11710 ft | 370 kts | 174° |
| 2026-05-06 12:40 | 24.81735 | 46.57027 | 12220 ft | 374 kts | 193° |
| 2026-05-06 12:40 | 24.79272 | 46.56111 | 12859 ft | 374 kts | 202° |
| 2026-05-06 12:40 | 24.76852 | 46.55042 | 13543 ft | 375 kts | 202° |
| 2026-05-06 12:41 | 24.74447 | 46.54002 | 14159 ft | 376 kts | 202° |
| 2026-05-06 12:41 | 24.72012 | 46.52931 | 14730 ft | 378 kts | 206° |
| 2026-05-06 12:41 | 24.69885 | 46.51217 | 15237 ft | 382 kts | 227° |
| 2026-05-06 12:41 | 24.68340 | 46.48837 | 15688 ft | 389 kts | 243° |
| 2026-05-06 12:42 | 24.67359 | 46.46063 | 16307 ft | 390 kts | 250° |
| 2026-05-06 12:42 | 24.66470 | 46.43233 | 16807 ft | 395 kts | 250° |
| 2026-05-06 12:42 | 24.65581 | 46.40349 | 17283 ft | 399 kts | 250° |
| 2026-05-06 12:42 | 24.64685 | 46.37450 | 17807 ft | 402 kts | 250° |
| 2026-05-06 12:43 | 24.63776 | 46.34537 | 18359 ft | 404 kts | 250° |
| 2026-05-06 12:43 | 24.62864 | 46.31643 | 18814 ft | 406 kts | 249° |
| 2026-05-06 12:43 | 24.61966 | 46.28813 | 19251 ft | 408 kts | 249° |
| 2026-05-06 12:43 | 24.61246 | 46.26554 | 19595 ft | 410 kts | 249° |
| 2026-05-06 12:44 | 24.60331 | 46.23691 | 20032 ft | 412 kts | 249° |
| 2026-05-06 12:44 | 24.59463 | 46.20980 | 20440 ft | 414 kts | 249° |
| 2026-05-06 12:44 | 24.58607 | 46.18313 | 20824 ft | 416 kts | 249° |
| 2026-05-06 12:44 | 24.57705 | 46.15501 | 21199 ft | 419 kts | 249° |
| 2026-05-06 12:45 | 24.56771 | 46.12592 | 21535 ft | 422 kts | 249° |
| 2026-05-06 12:45 | 24.55897 | 46.09871 | 21886 ft | 424 kts | 249° |
| 2026-05-06 12:45 | 24.54367 | 46.05112 | 22511 ft | 427 kts | 249° |
| 2026-05-06 12:46 | 24.53555 | 46.02591 | 22837 ft | 429 kts | 248° |
| 2026-05-06 12:46 | 24.52560 | 45.99503 | 23184 ft | 431 kts | 248° |
| 2026-05-06 12:46 | 24.51614 | 45.96566 | 23512 ft | 434 kts | 249° |
| 2026-05-06 12:46 | 24.50707 | 45.93750 | 23791 ft | 435 kts | 249° |
| 2026-05-06 12:47 | 24.49772 | 45.90850 | 24110 ft | 435 kts | 248° |
| 2026-05-06 12:47 | 24.49002 | 45.88463 | 24371 ft | 435 kts | 248° |
| 2026-05-06 12:47 | 24.48225 | 45.86058 | 24637 ft | 435 kts | 248° |
| 2026-05-06 12:47 | 24.47381 | 45.83445 | 24911 ft | 436 kts | 248° |
| 2026-05-06 12:48 | 24.46490 | 45.80690 | 25176 ft | 437 kts | 248° |
| 2026-05-06 12:48 | 24.45709 | 45.78279 | 25400 ft | 438 kts | 248° |
| 2026-05-06 12:48 | 24.44875 | 45.75803 | 25646 ft | 437 kts | 246° |
| 2026-05-06 12:48 | 24.43733 | 45.72984 | 25956 ft | 436 kts | 243° |
| 2026-05-06 12:49 | 24.42701 | 45.70676 | 26189 ft | 437 kts | 242° |
| 2026-05-06 12:49 | 24.41661 | 45.68424 | 26381 ft | 438 kts | 242° |
| 2026-05-06 12:49 | 24.40612 | 45.66156 | 26551 ft | 439 kts | 242° |
| 2026-05-06 12:49 | 24.39599 | 45.63970 | 26782 ft | 439 kts | 241° |
| 2026-05-06 12:50 | 24.38503 | 45.61661 | 27030 ft | 438 kts | 241° |
| 2026-05-06 12:50 | 24.37133 | 45.58702 | 27260 ft | 441 kts | 242° |
| 2026-05-06 12:50 | 24.35852 | 45.55844 | 27508 ft | 441 kts | 243° |
| 2026-05-06 12:50 | 24.34521 | 45.52836 | 27872 ft | 439 kts | 243° |
| 2026-05-06 12:51 | 24.33186 | 45.49815 | 28121 ft | 440 kts | 243° |
| 2026-05-06 12:51 | 24.31845 | 45.46791 | 28306 ft | 442 kts | 243° |
| 2026-05-06 12:51 | 24.30513 | 45.43796 | 28514 ft | 444 kts | 243° |
| 2026-05-06 12:51 | 24.29159 | 45.40760 | 28825 ft | 442 kts | 243° |
| 2026-05-06 12:52 | 24.27812 | 45.37746 | 29257 ft | 439 kts | 243° |
| 2026-05-06 12:52 | 24.26479 | 45.34766 | 29767 ft | 433 kts | 243° |
| 2026-05-06 12:52 | 24.25151 | 45.31800 | 30172 ft | 431 kts | 243° |
| 2026-05-06 12:52 | 24.23835 | 45.28865 | 30441 ft | 430 kts | 243° |
| 2026-05-06 12:53 | 24.22517 | 45.25924 | 30713 ft | 429 kts | 243° |
| 2026-05-06 12:53 | 24.21200 | 45.22988 | 31021 ft | 427 kts | 243° |
| 2026-05-06 12:53 | 24.19894 | 45.20078 | 31381 ft | 424 kts | 243° |
| 2026-05-06 12:53 | 24.18612 | 45.17222 | 31662 ft | 424 kts | 243° |
| 2026-05-06 12:54 | 24.17313 | 45.14333 | 31947 ft | 423 kts | 243° |
| 2026-05-06 12:54 | 24.16010 | 45.11437 | 32255 ft | 422 kts | 243° |
| 2026-05-06 12:54 | 24.14722 | 45.08573 | 32614 ft | 419 kts | 243° |
| 2026-05-06 12:54 | 24.13436 | 45.05715 | 32967 ft | 417 kts | 243° |
| 2026-05-06 12:55 | 24.12158 | 45.02873 | 33280 ft | 416 kts | 243° |
| 2026-05-06 12:55 | 24.10880 | 45.00035 | 33603 ft | 414 kts | 243° |
| 2026-05-06 12:55 | 24.09609 | 44.97213 | 33956 ft | 413 kts | 243° |
| 2026-05-06 12:55 | 24.08344 | 44.94405 | 34290 ft | 410 kts | 243° |
| 2026-05-06 12:56 | 24.07101 | 44.91648 | 34574 ft | 408 kts | 243° |
| 2026-05-06 12:56 | 24.05846 | 44.88865 | 34808 ft | 408 kts | 243° |
| 2026-05-06 12:56 | 24.04590 | 44.86084 | 35040 ft | 408 kts | 243° |
| 2026-05-06 12:56 | 24.03332 | 44.83300 | 35264 ft | 408 kts | 243° |
| 2026-05-06 12:57 | 24.02077 | 44.80521 | 35511 ft | 407 kts | 243° |
| 2026-05-06 12:57 | 24.00828 | 44.77761 | 35772 ft | 405 kts | 243° |
| 2026-05-06 12:57 | 23.99576 | 44.74992 | 35967 ft | 405 kts | 243° |
| 2026-05-06 12:58 | 23.97054 | 44.69424 | 35958 ft | 411 kts | 243° |
| 2026-05-06 12:58 | 23.94544 | 44.63885 | 35965 ft | 408 kts | 243° |
| 2026-05-06 12:59 | 23.92101 | 44.58292 | 35956 ft | 407 kts | 247° |
| 2026-05-06 12:59 | 23.90413 | 44.53500 | 35959 ft | 406 kts | 248° |
| 2026-05-06 13:00 | 23.88413 | 44.47741 | 35951 ft | 405 kts | 248° |
| 2026-05-06 13:00 | 23.86080 | 44.41069 | 35955 ft | 404 kts | 248° |
| 2026-05-06 13:01 | 23.84064 | 44.35339 | 35943 ft | 404 kts | 248° |
| 2026-05-06 13:01 | 23.82384 | 44.30576 | 35941 ft | 404 kts | 248° |
| 2026-05-06 13:02 | 23.80358 | 44.24842 | 35931 ft | 405 kts | 248° |
| 2026-05-06 13:02 | 23.78000 | 44.18178 | 35933 ft | 405 kts | 247° |
| 2026-05-06 13:03 | 23.75967 | 44.12439 | 35899 ft | 405 kts | 247° |
| 2026-05-06 13:03 | 23.74275 | 44.07671 | 35912 ft | 406 kts | 247° |
| 2026-05-06 13:04 | 23.71904 | 44.00997 | 35934 ft | 406 kts | 247° |
| 2026-05-06 13:04 | 23.69854 | 43.95235 | 35918 ft | 407 kts | 247° |
| 2026-05-06 13:05 | 23.68151 | 43.90454 | 35924 ft | 407 kts | 247° |
| 2026-05-06 13:05 | 23.66102 | 43.84706 | 35917 ft | 407 kts | 247° |
| 2026-05-06 13:06 | 23.64048 | 43.78955 | 35915 ft | 407 kts | 247° |
| 2026-05-06 13:06 | 23.61993 | 43.73209 | 35925 ft | 407 kts | 247° |
| 2026-05-06 13:07 | 23.59936 | 43.67466 | 35931 ft | 407 kts | 247° |
| 2026-05-06 13:07 | 23.58422 | 43.63226 | 35937 ft | 407 kts | 247° |
| 2026-05-06 13:08 | 23.56364 | 43.57483 | 35937 ft | 407 kts | 247° |
| 2026-05-06 13:08 | 23.54298 | 43.51750 | 35926 ft | 406 kts | 247° |
| 2026-05-06 13:09 | 23.52236 | 43.46024 | 35925 ft | 406 kts | 247° |
| 2026-05-06 13:09 | 23.50174 | 43.40304 | 35956 ft | 405 kts | 247° |
| 2026-05-06 13:10 | 23.48114 | 43.34595 | 35966 ft | 405 kts | 247° |
| 2026-05-06 13:10 | 23.46069 | 43.28933 | 35963 ft | 404 kts | 247° |
| 2026-05-06 13:11 | 23.44015 | 43.23253 | 35968 ft | 404 kts | 247° |
| 2026-05-06 13:11 | 23.41996 | 43.17678 | 35979 ft | 404 kts | 247° |
| 2026-05-06 13:12 | 23.39952 | 43.12044 | 35975 ft | 403 kts | 246° |
| 2026-05-06 13:12 | 23.37892 | 43.06382 | 35973 ft | 402 kts | 246° |
| 2026-05-06 13:13 | 23.35831 | 43.00721 | 35999 ft | 402 kts | 246° |
| 2026-05-06 13:13 | 23.33824 | 42.95215 | 35985 ft | 401 kts | 246° |
| 2026-05-06 13:14 | 23.32165 | 42.90668 | 35982 ft | 401 kts | 246° |
| 2026-05-06 13:14 | 23.30842 | 42.87048 | 35981 ft | 400 kts | 245° |
| 2026-05-06 13:15 | 23.29895 | 42.83407 | 36016 ft | 400 kts | 255° |
| 2026-05-06 13:15 | 23.29502 | 42.81688 | 36297 ft | 391 kts | 252° |
| 2026-05-06 13:15 | 23.28968 | 42.80004 | 36344 ft | 389 kts | 242° |
| 2026-05-06 13:15 | 23.28320 | 42.77568 | 35699 ft | 407 kts | 256° |
| 2026-05-06 13:16 | 23.27623 | 42.75235 | 35805 ft | 399 kts | 241° |
| 2026-05-06 13:16 | 23.26655 | 42.73504 | 36049 ft | 395 kts | 236° |
| 2026-05-06 13:16 | 23.25714 | 42.71969 | 35946 ft | 400 kts | 237° |
| 2026-05-06 13:17 | 23.24216 | 42.68981 | 35990 ft | 401 kts | 246° |
| 2026-05-06 13:17 | 23.23680 | 42.67461 | 36106 ft | 400 kts | 249° |
| 2026-05-06 13:17 | 23.23195 | 42.65945 | 36225 ft | 398 kts | 246° |
| 2026-05-06 13:17 | 23.22630 | 42.64276 | 36091 ft | 401 kts | 260° |
| 2026-05-06 13:18 | 23.22981 | 42.61476 | 34667 ft | 448 kts | 278° |
| 2026-05-06 13:18 | 23.23233 | 42.58265 | 34760 ft | 413 kts | 264° |
| 2026-05-06 13:18 | 23.22915 | 42.55404 | 35726 ft | 381 kts | 249° |
| 2026-05-06 13:18 | 23.22031 | 42.53378 | 35955 ft | 378 kts | 235° |
| 2026-05-06 13:19 | 23.20869 | 42.51919 | 35807 ft | 386 kts | 224° |
| 2026-05-06 13:19 | 23.17564 | 42.48457 | 35962 ft | 388 kts | 232° |
| 2026-05-06 13:20 | 23.14901 | 42.43658 | 35984 ft | 395 kts | 245° |
| 2026-05-06 13:20 | 23.12821 | 42.38073 | 35994 ft | 404 kts | 247° |
| 2026-05-06 13:21 | 23.10776 | 42.32359 | 35982 ft | 406 kts | 247° |
| 2026-05-06 13:21 | 23.08800 | 42.26797 | 35984 ft | 407 kts | 247° |
| 2026-05-06 13:22 | 23.06767 | 42.21091 | 35980 ft | 407 kts | 247° |
| 2026-05-06 13:22 | 23.04806 | 42.15607 | 35989 ft | 406 kts | 247° |
| 2026-05-06 13:23 | 23.04458 | 42.14632 | 35986 ft | 405 kts | 247° |
| 2026-05-06 13:23 | 23.04449 | 42.14608 | 35987 ft | 405 kts | 247° |
| 2026-05-06 13:24 | 23.02531 | 42.09254 | 35977 ft | 404 kts | 247° |
| 2026-05-06 13:24 | 23.00572 | 42.03792 | 35982 ft | 404 kts | 247° |
| 2026-05-06 13:25 | 22.98572 | 41.98224 | 35995 ft | 403 kts | 246° |
| 2026-05-06 13:25 | 22.96605 | 41.92750 | 35989 ft | 402 kts | 246° |
| 2026-05-06 13:26 | 22.94639 | 41.87291 | 35984 ft | 402 kts | 246° |
| 2026-05-06 13:26 | 22.92727 | 41.81993 | 35988 ft | 401 kts | 246° |
| 2026-05-06 13:27 | 22.90715 | 41.76423 | 35981 ft | 401 kts | 246° |
| 2026-05-06 13:27 | 22.88815 | 41.71167 | 35986 ft | 401 kts | 246° |
| 2026-05-06 13:28 | 22.86785 | 41.65558 | 35992 ft | 402 kts | 246° |
| 2026-05-06 13:28 | 22.84758 | 41.59962 | 35992 ft | 402 kts | 246° |
| 2026-05-06 13:29 | 22.82725 | 41.54357 | 36008 ft | 402 kts | 246° |
| 2026-05-06 13:29 | 22.80747 | 41.48910 | 35993 ft | 401 kts | 246° |
| 2026-05-06 13:30 | 22.78715 | 41.43322 | 35990 ft | 400 kts | 246° |
| 2026-05-06 13:30 | 22.76944 | 41.38458 | 35989 ft | 400 kts | 246° |
| 2026-05-06 13:31 | 22.75462 | 41.34388 | 36016 ft | 400 kts | 246° |
| 2026-05-06 13:31 | 22.74105 | 41.30664 | 35979 ft | 401 kts | 246° |
| 2026-05-06 13:32 | 22.72502 | 41.26379 | 35988 ft | 401 kts | 246° |
| 2026-05-06 13:32 | 22.70650 | 41.21262 | 35981 ft | 401 kts | 246° |
| 2026-05-06 13:33 | 22.69044 | 41.16839 | 35989 ft | 401 kts | 246° |
| 2026-05-06 13:33 | 22.67330 | 41.12159 | 35994 ft | 401 kts | 246° |
| 2026-05-06 13:34 | 22.65789 | 41.07959 | 35981 ft | 401 kts | 246° |
| 2026-05-06 13:34 | 22.64477 | 41.04392 | 35961 ft | 402 kts | 246° |
| 2026-05-06 13:35 | 22.63180 | 41.01141 | 35985 ft | 400 kts | 241° |
| 2026-05-06 13:35 | 22.62567 | 40.99287 | 35636 ft | 412 kts | 261° |
| 2026-05-06 13:35 | 22.62561 | 40.97414 | 35308 ft | 425 kts | 268° |
| 2026-05-06 13:35 | 22.62523 | 40.95103 | 35464 ft | 411 kts | 257° |
| 2026-05-06 13:36 | 22.61821 | 40.92786 | 35816 ft | 394 kts | 240° |
| 2026-05-06 13:36 | 22.59880 | 40.90006 | 35345 ft | 409 kts | 222° |
| 2026-05-06 13:36 | 22.58376 | 40.88714 | 34522 ft | 431 kts | 220° |
| 2026-05-06 13:37 | 22.56762 | 40.87177 | 34149 ft | 430 kts | 230° |
| 2026-05-06 13:37 | 22.55537 | 40.85080 | 35067 ft | 403 kts | 246° |
| 2026-05-06 13:37 | 22.54739 | 40.82450 | 35703 ft | 392 kts | 251° |
| 2026-05-06 13:37 | 22.54083 | 40.79591 | 35896 ft | 394 kts | 254° |
| 2026-05-06 13:38 | 22.53471 | 40.76687 | 35935 ft | 397 kts | 253° |
| 2026-05-06 13:38 | 22.51932 | 40.70910 | 35973 ft | 402 kts | 249° |
| 2026-05-06 13:39 | 22.50018 | 40.65226 | 35981 ft | 406 kts | 246° |
| 2026-05-06 13:39 | 22.48111 | 40.60017 | 35984 ft | 409 kts | 246° |
| 2026-05-06 13:40 | 22.46000 | 40.54356 | 35988 ft | 410 kts | 246° |
| 2026-05-06 13:40 | 22.44386 | 40.50043 | 35995 ft | 410 kts | 246° |
| 2026-05-06 13:41 | 22.42373 | 40.44636 | 36002 ft | 406 kts | 246° |
| 2026-05-06 13:41 | 22.40521 | 40.39672 | 35993 ft | 399 kts | 246° |
| 2026-05-06 13:42 | 22.38454 | 40.34123 | 36015 ft | 398 kts | 246° |
| 2026-05-06 13:42 | 22.36436 | 40.28716 | 36006 ft | 397 kts | 246° |
| 2026-05-06 13:43 | 22.34717 | 40.24121 | 36029 ft | 397 kts | 246° |
| 2026-05-06 13:43 | 22.32959 | 40.19423 | 36014 ft | 398 kts | 246° |
| 2026-05-06 13:44 | 22.31808 | 40.16271 | 36020 ft | 399 kts | 245° |
| 2026-05-06 13:44 | 22.30582 | 40.13591 | 35960 ft | 399 kts | 237° |
| 2026-05-06 13:45 | 22.29566 | 40.11722 | 35987 ft | 398 kts | 240° |
| 2026-05-06 13:45 | 22.26151 | 40.09278 | 35134 ft | 415 kts | 206° |
| 2026-05-06 13:45 | 22.23756 | 40.07706 | 35408 ft | 397 kts | 224° |
| 2026-05-06 13:46 | 22.21987 | 40.05456 | 35679 ft | 392 kts | 240° |
| 2026-05-06 13:46 | 22.21016 | 40.02741 | 35735 ft | 400 kts | 255° |
| 2026-05-06 13:46 | 22.20661 | 39.96661 | 35865 ft | 408 kts | 261° |
| 2026-05-06 13:47 | 22.19246 | 39.90806 | 35950 ft | 405 kts | 243° |
| 2026-05-06 13:47 | 22.17333 | 39.87177 | 35930 ft | 407 kts | 234° |
| 2026-05-06 13:48 | 22.14455 | 39.82609 | 35932 ft | 408 kts | 237° |
| 2026-05-06 13:48 | 22.12839 | 39.79910 | 35943 ft | 409 kts | 236° |
| 2026-05-06 13:51 | 22.11832 | 39.78216 | 35939 ft | 410 kts | 236° |
| 2026-05-06 13:51 | 22.10301 | 39.75707 | 35903 ft | 407 kts | 236° |
| 2026-05-06 13:53 | 22.09755 | 39.74819 | 35897 ft | 406 kts | 236° |
| 2026-05-06 13:53 | 22.08489 | 39.72763 | 35892 ft | 404 kts | 236° |
| 2026-05-06 13:54 | 22.06833 | 39.70073 | 35893 ft | 401 kts | 236° |
| 2026-05-06 13:54 | 22.05428 | 39.67780 | 35901 ft | 399 kts | 236° |
| 2026-05-06 13:55 | 22.04012 | 39.65492 | 35862 ft | 398 kts | 234° |
| 2026-05-06 13:55 | 22.01967 | 39.62660 | 35854 ft | 396 kts | 232° |
| 2026-05-06 13:56 | 21.99015 | 39.57992 | 35876 ft | 396 kts | 238° |
| 2026-05-06 13:56 | 21.97190 | 39.54831 | 35958 ft | 397 kts | 236° |
| 2026-05-06 13:57 | 21.97186 | 39.54825 | 35961 ft | 397 kts | 236° |
| 2026-05-06 13:57 | 21.95545 | 39.52062 | 35863 ft | 402 kts | 237° |
| 2026-05-06 13:58 | 21.93482 | 39.48541 | 35834 ft | 403 kts | 236° |
| 2026-05-06 13:58 | 21.92329 | 39.46533 | 35808 ft | 403 kts | 237° |
| 2026-05-06 13:59 | 21.90367 | 39.43817 | 36082 ft | 395 kts | 233° |
| 2026-05-06 13:59 | 21.89416 | 39.42473 | 35823 ft | 401 kts | 234° |
| 2026-05-06 13:59 | 21.88545 | 39.41252 | 35510 ft | 408 kts | 232° |
| 2026-05-06 14:00 | 21.87101 | 39.39200 | 35835 ft | 394 kts | 234° |
| 2026-05-06 14:00 | 21.86257 | 39.37945 | 36243 ft | 388 kts | 233° |
| 2026-05-06 14:00 | 21.85964 | 39.37498 | 36259 ft | 389 kts | 233° |
| 2026-05-06 14:01 | 21.85047 | 39.36152 | 36014 ft | 397 kts | 233° |
| 2026-05-06 14:01 | 21.84495 | 39.35338 | 35787 ft | 403 kts | 232° |
| 2026-05-06 14:01 | 21.83403 | 39.33617 | 35595 ft | 406 kts | 236° |
| 2026-05-06 14:02 | 21.82422 | 39.31966 | 35871 ft | 396 kts | 237° |
| 2026-05-06 14:02 | 21.81080 | 39.29679 | 35931 ft | 398 kts | 236° |
| 2026-05-06 14:02 | 21.80354 | 39.28425 | 35598 ft | 400 kts | 238° |
| 2026-05-06 14:02 | 21.79047 | 39.26076 | 36078 ft | 382 kts | 240° |
| 2026-05-06 14:03 | 21.77798 | 39.23830 | 35692 ft | 395 kts | 238° |
| 2026-05-06 14:03 | 21.76734 | 39.21953 | 35707 ft | 398 kts | 238° |
| 2026-05-06 14:03 | 21.75647 | 39.19918 | 35782 ft | 399 kts | 239° |
| 2026-05-06 14:04 | 21.74479 | 39.17791 | 35891 ft | 400 kts | 236° |
| 2026-05-06 14:04 | 21.73251 | 39.15851 | 35939 ft | 401 kts | 234° |
| 2026-05-06 14:05 | 21.72032 | 39.13970 | 35954 ft | 403 kts | 236° |
| 2026-05-06 14:05 | 21.70619 | 39.11683 | 37333 ft | 408 kts | 233° |
| 2026-05-06 14:06 | 21.69795 | 39.10497 | 35734 ft | 412 kts | 230° |
| 2026-05-06 14:06 | 21.68731 | 39.09171 | 35857 ft | 405 kts | 228° |
| 2026-05-06 14:06 | 21.67229 | 39.07429 | 35803 ft | 402 kts | 227° |
| 2026-05-06 14:07 | 21.64975 | 39.04911 | 35825 ft | 398 kts | 226° |
| 2026-05-06 14:07 | 21.63591 | 39.03395 | 35816 ft | 398 kts | 226° |
| 2026-05-06 14:08 | 21.62716 | 39.02434 | 35823 ft | 397 kts | 226° |
| 2026-05-06 14:08 | 21.60803 | 39.00321 | 35809 ft | 396 kts | 227° |
| 2026-05-06 14:09 | 21.59096 | 38.98415 | 35813 ft | 396 kts | 227° |
| 2026-05-06 14:09 | 21.57652 | 38.96789 | 35818 ft | 395 kts | 227° |
| 2026-05-06 14:10 | 21.56223 | 38.95172 | 35817 ft | 395 kts | 227° |
| 2026-05-06 14:10 | 21.54551 | 38.93225 | 35817 ft | 395 kts | 229° |
| 2026-05-06 14:11 | 21.52685 | 38.91052 | 35815 ft | 395 kts | 227° |
| 2026-05-06 14:11 | 21.51018 | 38.89162 | 35808 ft | 397 kts | 227° |
| 2026-05-06 14:12 | 21.49184 | 38.87096 | 35816 ft | 401 kts | 227° |
| 2026-05-06 14:12 | 21.47623 | 38.85337 | 35807 ft | 404 kts | 227° |
| 2026-05-06 14:14 | 21.47530 | 38.85232 | 35810 ft | 404 kts | 227° |
| 2026-05-06 14:15 | 21.45189 | 38.82586 | 35818 ft | 407 kts | 227° |
| 2026-05-06 14:15 | 21.43342 | 38.80493 | 35825 ft | 409 kts | 227° |
| 2026-05-06 14:16 | 21.41336 | 38.78216 | 35821 ft | 411 kts | 227° |
| 2026-05-06 14:16 | 21.39480 | 38.76107 | 35814 ft | 410 kts | 227° |
| 2026-05-06 14:17 | 21.37571 | 38.73939 | 35797 ft | 409 kts | 227° |
| 2026-05-06 14:17 | 21.35580 | 38.71677 | 35800 ft | 407 kts | 227° |
| 2026-05-06 14:18 | 21.33189 | 38.68963 | 35833 ft | 405 kts | 226° |
| 2026-05-06 14:18 | 21.29886 | 38.65384 | 35708 ft | 406 kts | 226° |
| 2026-05-06 14:19 | 21.27688 | 38.62928 | 35880 ft | 400 kts | 226° |
| 2026-05-06 14:19 | 21.25168 | 38.59955 | 35841 ft | 400 kts | 229° |
| 2026-05-06 14:20 | 21.23104 | 38.57600 | 35772 ft | 401 kts | 226° |
| 2026-05-06 14:20 | 21.21028 | 38.55241 | 35753 ft | 400 kts | 230° |
| 2026-05-06 14:21 | 21.18843 | 38.52447 | 35773 ft | 399 kts | 230° |
| 2026-05-06 14:21 | 21.15391 | 38.48335 | 35797 ft | 399 kts | 228° |
| 2026-05-06 14:22 | 21.12278 | 38.44885 | 35725 ft | 406 kts | 225° |
| 2026-05-06 14:22 | 21.10452 | 38.43033 | 35866 ft | 406 kts | 224° |
| 2026-05-06 14:22 | 21.08588 | 38.41152 | 35903 ft | 407 kts | 225° |
| 2026-05-06 14:23 | 21.05867 | 38.38050 | 35912 ft | 410 kts | 231° |
| 2026-05-06 14:23 | 21.02339 | 38.33353 | 35918 ft | 412 kts | 228° |
| 2026-05-06 14:24 | 20.99267 | 38.30377 | 35806 ft | 413 kts | 223° |
| 2026-05-06 14:24 | 20.96380 | 38.27313 | 35853 ft | 409 kts | 227° |
| 2026-05-06 14:25 | 20.93021 | 38.23441 | 35843 ft | 404 kts | 228° |
| 2026-05-06 14:25 | 20.90413 | 38.20391 | 35802 ft | 403 kts | 228° |
| 2026-05-06 14:26 | 20.87058 | 38.16393 | 35832 ft | 401 kts | 228° |
| 2026-05-06 14:26 | 20.84671 | 38.13610 | 35831 ft | 400 kts | 228° |
| 2026-05-06 14:27 | 20.82548 | 38.11158 | 35831 ft | 399 kts | 231° |
| 2026-05-06 14:27 | 20.80423 | 38.08371 | 35953 ft | 397 kts | 228° |
| 2026-05-06 14:28 | 20.77637 | 38.05331 | 35999 ft | 401 kts | 226° |
| 2026-05-06 14:28 | 20.75059 | 38.02414 | 35892 ft | 407 kts | 230° |
| 2026-05-06 14:29 | 20.73226 | 37.99608 | 35641 ft | 415 kts | 242° |
| 2026-05-06 14:29 | 20.70856 | 37.95553 | 35669 ft | 411 kts | 224° |
| 2026-05-06 14:30 | 20.68810 | 37.93767 | 35802 ft | 409 kts | 219° |
| 2026-05-06 14:30 | 20.67635 | 37.92774 | 35826 ft | 408 kts | 221° |
| 2026-05-06 14:30 | 20.65617 | 37.90522 | 35491 ft | 414 kts | 233° |
| 2026-05-06 14:31 | 20.63761 | 37.88094 | 35506 ft | 410 kts | 225° |
| 2026-05-06 14:31 | 20.62547 | 37.86877 | 35953 ft | 398 kts | 223° |
| 2026-05-06 14:31 | 20.61165 | 37.85563 | 35552 ft | 408 kts | 224° |
| 2026-05-06 14:32 | 20.57060 | 37.81401 | 35275 ft | 410 kts | 226° |
| 2026-05-06 14:32 | 20.55103 | 37.79214 | 34795 ft | 409 kts | 227° |
| 2026-05-06 14:32 | 20.53213 | 37.77029 | 34155 ft | 410 kts | 227° |
| 2026-05-06 14:33 | 20.51353 | 37.74856 | 33328 ft | 413 kts | 227° |
| 2026-05-06 14:33 | 20.49426 | 37.72607 | 32586 ft | 413 kts | 228° |
| 2026-05-06 14:33 | 20.47488 | 37.70354 | 31828 ft | 415 kts | 228° |
| 2026-05-06 14:33 | 20.45630 | 37.68259 | 31053 ft | 418 kts | 225° |
| 2026-05-06 14:34 | 20.44124 | 37.66899 | 30509 ft | 421 kts | 218° |
| 2026-05-06 14:34 | 20.42516 | 37.65731 | 30094 ft | 422 kts | 215° |
| 2026-05-06 14:34 | 20.40939 | 37.64729 | 29683 ft | 421 kts | 212° |
| 2026-05-06 14:34 | 20.38894 | 37.63655 | 28822 ft | 428 kts | 205° |
| 2026-05-06 14:35 | 20.37240 | 37.63121 | 28006 ft | 440 kts | 196° |
| 2026-05-06 14:35 | 20.35844 | 37.62786 | 27504 ft | 442 kts | 199° |
| 2026-05-06 14:35 | 20.34172 | 37.62255 | 27312 ft | 433 kts | 203° |
| 2026-05-06 14:35 | 20.32746 | 37.61683 | 27279 ft | 422 kts | 205° |
| 2026-05-06 14:36 | 20.31097 | 37.60806 | 27050 ft | 409 kts | 216° |
| 2026-05-06 14:36 | 20.29388 | 37.59693 | 26565 ft | 410 kts | 212° |
| 2026-05-06 14:36 | 20.26955 | 37.58375 | 26183 ft | 403 kts | 208° |
| 2026-05-06 14:36 | 20.24800 | 37.57442 | 25754 ft | 403 kts | 201° |
| 2026-05-06 14:37 | 20.22237 | 37.56697 | 25213 ft | 402 kts | 199° |
| 2026-05-06 14:37 | 20.19741 | 37.55925 | 24675 ft | 400 kts | 201° |
| 2026-05-06 14:37 | 20.17467 | 37.55103 | 24199 ft | 398 kts | 203° |
| 2026-05-06 14:37 | 20.16969 | 37.54911 | 24085 ft | 398 kts | 204° |
| 2026-05-06 14:38 | 20.15473 | 37.54311 | 23754 ft | 397 kts | 204° |
| 2026-05-06 14:38 | 20.15105 | 37.54163 | 23681 ft | 397 kts | 204° |
| 2026-05-06 14:38 | 20.12548 | 37.53127 | 23066 ft | 396 kts | 204° |
| 2026-05-06 14:38 | 20.09958 | 37.52150 | 22446 ft | 395 kts | 198° |
| 2026-05-06 14:39 | 20.07218 | 37.51656 | 21664 ft | 402 kts | 189° |
| 2026-05-06 14:39 | 20.05432 | 37.51470 | 21237 ft | 401 kts | 188° |
| 2026-05-06 14:39 | 20.04712 | 37.51395 | 21074 ft | 400 kts | 188° |
| 2026-05-06 14:39 | 20.01943 | 37.51101 | 20532 ft | 396 kts | 189° |
| 2026-05-06 14:40 | 19.99217 | 37.50793 | 19990 ft | 392 kts | 189° |
| 2026-05-06 14:40 | 19.96527 | 37.50471 | 19467 ft | 388 kts | 189° |
| 2026-05-06 14:40 | 19.93899 | 37.50144 | 18956 ft | 384 kts | 189° |
| 2026-05-06 14:40 | 19.91255 | 37.49807 | 18444 ft | 381 kts | 189° |
| 2026-05-06 14:41 | 19.88623 | 37.49468 | 17879 ft | 378 kts | 189° |
| 2026-05-06 14:41 | 19.86043 | 37.49135 | 17318 ft | 375 kts | 189° |
| 2026-05-06 14:41 | 19.83468 | 37.48801 | 16787 ft | 371 kts | 189° |
| 2026-05-06 14:41 | 19.80928 | 37.48472 | 16276 ft | 367 kts | 189° |
| 2026-05-06 14:42 | 19.78400 | 37.48145 | 15771 ft | 363 kts | 189° |
| 2026-05-06 14:42 | 19.75902 | 37.47821 | 15272 ft | 361 kts | 189° |
| 2026-05-06 14:42 | 19.73487 | 37.47510 | 14795 ft | 358 kts | 189° |
| 2026-05-06 14:42 | 19.71029 | 37.47192 | 14315 ft | 356 kts | 189° |
| 2026-05-06 14:43 | 19.68575 | 37.46875 | 13803 ft | 355 kts | 189° |
| 2026-05-06 14:43 | 19.66126 | 37.46559 | 13278 ft | 353 kts | 189° |
| 2026-05-06 14:43 | 19.63698 | 37.46245 | 12759 ft | 351 kts | 189° |
| 2026-05-06 14:43 | 19.61282 | 37.45932 | 12259 ft | 348 kts | 190° |
| 2026-05-06 14:44 | 19.58881 | 37.45624 | 11771 ft | 346 kts | 188° |
| 2026-05-06 14:44 | 19.56523 | 37.45319 | 11188 ft | 348 kts | 188° |
| 2026-05-06 14:44 | 19.54120 | 37.45010 | 10766 ft | 344 kts | 189° |
| 2026-05-06 14:45 | 19.49520 | 37.44418 | 10427 ft | 322 kts | 188° |
| 2026-05-06 14:45 | 19.47322 | 37.44136 | 10288 ft | 312 kts | 189° |
| 2026-05-06 14:45 | 19.45199 | 37.43862 | 10162 ft | 303 kts | 188° |
| 2026-05-06 14:45 | 19.43204 | 37.43607 | 10045 ft | 294 kts | 188° |
| 2026-05-06 14:46 | 19.41202 | 37.43351 | 9920 ft | 286 kts | 189° |
| 2026-05-06 14:46 | 19.39275 | 37.43102 | 9739 ft | 281 kts | 188° |
| 2026-05-06 14:46 | 19.37339 | 37.42851 | 9441 ft | 280 kts | 188° |
| 2026-05-06 14:46 | 19.35412 | 37.42603 | 9158 ft | 279 kts | 188° |
| 2026-05-06 14:47 | 19.33488 | 37.42355 | 8862 ft | 278 kts | 188° |
| 2026-05-06 14:47 | 19.31590 | 37.42110 | 8578 ft | 277 kts | 188° |
| 2026-05-06 14:47 | 19.29672 | 37.41863 | 8250 ft | 278 kts | 188° |
| 2026-05-06 14:47 | 19.27762 | 37.41618 | 7957 ft | 277 kts | 188° |
| 2026-05-06 14:48 | 19.25847 | 37.41371 | 7666 ft | 277 kts | 187° |
| 2026-05-06 14:48 | 19.23934 | 37.41126 | 7354 ft | 277 kts | 187° |
| 2026-05-06 14:48 | 19.22041 | 37.40883 | 7064 ft | 277 kts | 187° |
| 2026-05-06 14:48 | 19.20123 | 37.40637 | 6779 ft | 277 kts | 187° |
| 2026-05-06 14:49 | 19.18252 | 37.40397 | 6622 ft | 272 kts | 187° |
| 2026-05-06 14:49 | 19.16395 | 37.40158 | 6462 ft | 266 kts | 187° |
| 2026-05-06 14:49 | 19.14590 | 37.39906 | 6365 ft | 257 kts | 192° |
| 2026-05-06 14:49 | 19.13045 | 37.39115 | 6314 ft | 245 kts | 225° |
| 2026-05-06 14:50 | 19.12149 | 37.37623 | 6087 ft | 241 kts | 248° |
| 2026-05-06 14:50 | 19.11656 | 37.35937 | 5838 ft | 240 kts | 258° |
| 2026-05-06 14:50 | 19.11306 | 37.34205 | 5434 ft | 242 kts | 262° |
| 2026-05-06 14:50 | 19.11386 | 37.32526 | 5356 ft | 223 kts | 293° |
| 2026-05-06 14:51 | 19.12340 | 37.31350 | 5102 ft | 211 kts | 336° |
| 2026-05-06 14:51 | 19.13686 | 37.30879 | 4943 ft | 200 kts | 346° |
| 2026-05-06 14:51 | 19.14977 | 37.30399 | 4794 ft | 194 kts | 342° |
| 2026-05-06 14:51 | 19.16251 | 37.29929 | 4706 ft | 194 kts | 345° |
| 2026-05-06 14:52 | 19.17549 | 37.29540 | 4585 ft | 197 kts | 347° |
| 2026-05-06 14:52 | 19.18887 | 37.29190 | 4353 ft | 197 kts | 349° |
| 2026-05-06 14:52 | 19.20206 | 37.28865 | 4162 ft | 191 kts | 350° |
| 2026-05-06 14:52 | 19.21477 | 37.28561 | 3978 ft | 184 kts | 350° |
| 2026-05-06 14:53 | 19.22685 | 37.28275 | 3787 ft | 178 kts | 349° |
| 2026-05-06 14:53 | 19.23872 | 37.27996 | 3588 ft | 172 kts | 348° |
| 2026-05-06 14:53 | 19.25013 | 37.27726 | 3423 ft | 170 kts | 348° |
| 2026-05-06 14:53 | 19.26180 | 37.27453 | 3218 ft | 166 kts | 348° |
| 2026-05-06 14:54 | 19.27310 | 37.27186 | 3082 ft | 167 kts | 349° |
| 2026-05-06 14:54 | 19.28440 | 37.26921 | 2949 ft | 163 kts | 348° |
| 2026-05-06 14:54 | 19.29543 | 37.26660 | 2764 ft | 160 kts | 349° |
| 2026-05-06 14:54 | 19.30628 | 37.26406 | 2521 ft | 158 kts | 349° |
| 2026-05-06 14:55 | 19.31674 | 37.26158 | 2309 ft | 154 kts | 349° |
| 2026-05-06 14:55 | 19.32697 | 37.25918 | 2110 ft | 147 kts | 349° |
| 2026-05-06 14:55 | 19.33654 | 37.25692 | 1936 ft | 136 kts | 349° |
| 2026-05-06 14:55 | 19.34583 | 37.25474 | 1769 ft | 136 kts | 348° |
| 2026-05-06 14:56 | 19.35486 | 37.25263 | 1580 ft | 132 kts | 348° |
| 2026-05-06 14:56 | 19.36337 | 37.25061 | 1428 ft | 119 kts | 349° |
| 2026-05-06 14:56 | 19.37110 | 37.24880 | 1258 ft | 113 kts | 349° |
| 2026-05-06 14:56 | 19.37876 | 37.24700 | 1112 ft | 114 kts | 349° |
| 2026-05-06 14:57 | 19.38662 | 37.24515 | 960 ft | 120 kts | 349° |
| 2026-05-06 14:57 | 19.39540 | 37.24307 | 799 ft | 133 kts | 349° |
| 2026-05-06 14:57 | 19.40427 | 37.24090 | 556 ft | 125 kts | 351° |
| 2026-05-06 14:57 | 19.41264 | 37.23890 | 321 ft | 121 kts | 353° |
| 2026-05-06 14:58 | 19.42078 | 37.23701 | 203 ft | 123 kts | 351° |
| 2026-05-06 14:58 | 19.42920 | 37.23507 | 152 ft | 124 kts | 349° |
| 2026-05-06 14:58 | 19.43713 | 37.23329 | 247 ft | 121 kts | 353° |
| 2026-05-06 14:58 | 19.44580 | 37.23107 | 676 ft | 123 kts | 345° |
| 2026-05-06 14:59 | 19.45423 | 37.22814 | 942 ft | 135 kts | 348° |
| 2026-05-06 14:59 | 19.46348 | 37.22530 | 796 ft | 142 kts | 349° |
| 2026-05-06 14:59 | 19.47268 | 37.22242 | 654 ft | 132 kts | 348° |
| 2026-05-06 14:59 | 19.48140 | 37.21974 | 364 ft | 143 kts | 349° |
| 2026-05-06 15:00 | 19.49151 | 37.21818 | 396 ft | 145 kts | 4° |
| 2026-05-06 15:00 | 19.50115 | 37.21942 | 627 ft | 137 kts | 19° |
| 2026-05-06 15:00 | 19.50961 | 37.22407 | 497 ft | 147 kts | 41° |
| 2026-05-06 15:00 | 19.51572 | 37.23441 | 636 ft | 185 kts | 72° |
| 2026-05-06 15:01 | 19.51583 | 37.24870 | 1294 ft | 207 kts | 108° |
| 2026-05-06 15:01 | 19.50582 | 37.26066 | 2019 ft | 227 kts | 142° |
| 2026-05-06 15:01 | 19.49272 | 37.27009 | 2692 ft | 232 kts | 143° |
| 2026-05-06 15:01 | 19.47889 | 37.28023 | 2580 ft | 248 kts | 138° |
| 2026-05-06 15:02 | 19.46686 | 37.29217 | 2948 ft | 226 kts | 123° |
| 2026-05-06 15:02 | 19.45723 | 37.30570 | 3544 ft | 232 kts | 133° |
| 2026-05-06 15:02 | 19.44305 | 37.31522 | 3729 ft | 262 kts | 154° |
| 2026-05-06 15:02 | 19.42683 | 37.32451 | 3730 ft | 271 kts | 143° |
| 2026-05-06 15:03 | 19.41196 | 37.33577 | 3735 ft | 264 kts | 140° |
| 2026-05-06 15:03 | 19.39758 | 37.34735 | 3738 ft | 256 kts | 141° |
| 2026-05-06 15:03 | 19.38172 | 37.35575 | 3662 ft | 259 kts | 167° |
| 2026-05-06 15:03 | 19.36436 | 37.35776 | 3610 ft | 242 kts | 172° |
| 2026-05-06 15:04 | 19.34799 | 37.36021 | 3445 ft | 231 kts | 170° |
| 2026-05-06 15:04 | 19.33253 | 37.36280 | 3279 ft | 227 kts | 170° |
| 2026-05-06 15:04 | 19.31695 | 37.36534 | 3169 ft | 227 kts | 169° |
| 2026-05-06 15:04 | 19.30116 | 37.36791 | 3075 ft | 231 kts | 170° |
| 2026-05-06 15:05 | 19.28519 | 37.37048 | 3028 ft | 235 kts | 169° |
| 2026-05-06 15:05 | 19.26909 | 37.37312 | 3025 ft | 234 kts | 169° |
| 2026-05-06 15:05 | 19.25304 | 37.37575 | 3028 ft | 232 kts | 170° |
| 2026-05-06 15:05 | 19.23704 | 37.37837 | 3036 ft | 235 kts | 170° |
| 2026-05-06 15:06 | 19.22073 | 37.38104 | 3038 ft | 238 kts | 170° |
| 2026-05-06 15:06 | 19.20412 | 37.38377 | 3033 ft | 253 kts | 170° |
| 2026-05-06 15:06 | 19.18647 | 37.38665 | 3033 ft | 255 kts | 170° |
| 2026-05-06 15:06 | 19.16915 | 37.38948 | 3027 ft | 253 kts | 171° |
| 2026-05-06 15:07 | 19.15186 | 37.39214 | 3032 ft | 251 kts | 175° |
| 2026-05-06 15:07 | 19.13490 | 37.38900 | 3020 ft | 249 kts | 212° |
| 2026-05-06 15:07 | 19.12292 | 37.37638 | 3032 ft | 245 kts | 244° |
| 2026-05-06 15:07 | 19.11683 | 37.35969 | 3037 ft | 243 kts | 259° |
| 2026-05-06 15:08 | 19.11319 | 37.34247 | 3019 ft | 237 kts | 263° |
| 2026-05-06 15:08 | 19.10980 | 37.32540 | 3028 ft | 239 kts | 261° |
| 2026-05-06 15:08 | 19.10685 | 37.30808 | 3034 ft | 242 kts | 270° |
| 2026-05-06 15:08 | 19.11080 | 37.29167 | 3042 ft | 233 kts | 307° |
| 2026-05-06 15:09 | 19.12275 | 37.28215 | 3019 ft | 207 kts | 347° |
| 2026-05-06 15:09 | 19.13586 | 37.28368 | 3034 ft | 183 kts | 23° |
| 2026-05-06 15:09 | 19.14679 | 37.28877 | 3011 ft | 163 kts | 8° |
| 2026-05-06 15:09 | 19.15793 | 37.28732 | 3015 ft | 166 kts | 335° |
| 2026-05-06 15:10 | 19.16910 | 37.28474 | 3025 ft | 166 kts | 6° |
| 2026-05-06 15:10 | 19.18041 | 37.28674 | 3108 ft | 167 kts | 10° |
| 2026-05-06 15:10 | 19.19183 | 37.28904 | 3046 ft | 167 kts | 6° |
| 2026-05-06 15:10 | 19.19929 | 37.28866 | 3017 ft | 157 kts | 346° |
| 2026-05-06 15:11 | 19.20935 | 37.28583 | 3019 ft | 144 kts | 349° |
| 2026-05-06 15:11 | 19.22244 | 37.28329 | 3022 ft | 144 kts | 349° |
| 2026-05-06 15:11 | 19.23212 | 37.28123 | 3043 ft | 143 kts | 349° |
| 2026-05-06 15:11 | 19.24177 | 37.27910 | 3057 ft | 141 kts | 349° |
| 2026-05-06 15:12 | 19.25138 | 37.27691 | 3022 ft | 139 kts | 349° |
| 2026-05-06 15:12 | 19.25756 | 37.27548 | 3021 ft | 137 kts | 349° |
| 2026-05-06 15:12 | 19.26710 | 37.27326 | 3048 ft | 143 kts | 348° |
| 2026-05-06 15:12 | 19.27696 | 37.27095 | 3035 ft | 142 kts | 348° |
| 2026-05-06 15:13 | 19.28154 | 37.26987 | 3010 ft | 142 kts | 349° |
| 2026-05-06 15:13 | 19.28827 | 37.26829 | 2884 ft | 145 kts | 349° |
| 2026-05-06 15:13 | 19.29790 | 37.26604 | 2681 ft | 140 kts | 349° |
| 2026-05-06 15:13 | 19.30646 | 37.26400 | 2527 ft | 132 kts | 350° |
| 2026-05-06 15:14 | 19.31408 | 37.26221 | 2355 ft | 129 kts | 349° |
| 2026-05-06 15:14 | 19.32185 | 37.26037 | 2257 ft | 126 kts | 349° |
| 2026-05-06 15:14 | 19.33040 | 37.25838 | 2058 ft | 125 kts | 351° |
| 2026-05-06 15:14 | 19.33873 | 37.25644 | 1887 ft | 122 kts | 348° |
| 2026-05-06 15:15 | 19.34691 | 37.25450 | 1747 ft | 119 kts | 349° |
| 2026-05-06 15:15 | 19.35486 | 37.25262 | 1588 ft | 115 kts | 349° |
| 2026-05-06 15:15 | 19.36250 | 37.25082 | 1435 ft | 114 kts | 349° |
| 2026-05-06 15:15 | 19.37013 | 37.24903 | 1285 ft | 118 kts | 348° |
| 2026-05-06 15:16 | 19.37693 | 37.24743 | 1158 ft | 123 kts | 349° |
| 2026-05-06 15:16 | 19.38534 | 37.24544 | 994 ft | 123 kts | 350° |
| 2026-05-06 15:16 | 19.39385 | 37.24344 | 858 ft | 127 kts | 350° |
| 2026-05-06 15:16 | 19.40256 | 37.24139 | 623 ft | 129 kts | 351° |
| 2026-05-06 15:17 | 19.41049 | 37.23928 | 402 ft | 110 kts | 354° |
| 2026-05-06 15:17 | 19.41786 | 37.23769 | 250 ft | 119 kts | 351° |
| 2026-05-06 15:17 | 19.42542 | 37.23597 | 156 ft | 103 kts | 348° |
| 2026-05-06 15:17 | 19.43249 | 37.23436 | 277 ft | 122 kts | 351° |
| 2026-05-06 15:18 | 19.44163 | 37.23239 | 894 ft | 141 kts | 347° |
| 2026-05-06 15:18 | 19.45187 | 37.22936 | 1496 ft | 169 kts | 344° |
| 2026-05-06 15:18 | 19.46416 | 37.22514 | 1859 ft | 202 kts | 350° |
| 2026-05-06 15:18 | 19.47868 | 37.22286 | 2327 ft | 215 kts | 4° |
| 2026-05-06 15:19 | 19.49259 | 37.22783 | 2808 ft | 211 kts | 36° |
| 2026-05-06 15:19 | 19.50263 | 37.23969 | 3007 ft | 229 kts | 57° |
| 2026-05-06 15:19 | 19.50712 | 37.25630 | 3027 ft | 244 kts | 85° |
| 2026-05-06 15:19 | 19.50254 | 37.27364 | 3037 ft | 256 kts | 117° |
| 2026-05-06 15:20 | 19.48932 | 37.28671 | 3045 ft | 261 kts | 147° |
| 2026-05-06 15:20 | 19.47352 | 37.29627 | 3019 ft | 262 kts | 146° |
| 2026-05-06 15:20 | 19.45815 | 37.30632 | 3003 ft | 264 kts | 145° |
| 2026-05-06 15:20 | 19.44236 | 37.31705 | 3024 ft | 275 kts | 145° |
| 2026-05-06 15:21 | 19.42617 | 37.32828 | 3025 ft | 278 kts | 144° |
| 2026-05-06 15:21 | 19.40993 | 37.33962 | 3021 ft | 282 kts | 143° |
| 2026-05-06 15:21 | 19.39334 | 37.35097 | 3030 ft | 283 kts | 149° |
| 2026-05-06 15:21 | 19.37460 | 37.35708 | 2905 ft | 284 kts | 175° |
| 2026-05-06 15:22 | 19.35559 | 37.35313 | 2779 ft | 277 kts | 208° |
| 2026-05-06 15:22 | 19.33889 | 37.34443 | 2657 ft | 261 kts | 197° |
| 2026-05-06 15:22 | 19.32190 | 37.34508 | 2553 ft | 241 kts | 156° |
| 2026-05-06 15:22 | 19.30731 | 37.35268 | 2537 ft | 233 kts | 154° |
| 2026-05-06 15:23 | 19.29144 | 37.35496 | 2504 ft | 233 kts | 194° |
| 2026-05-06 15:23 | 19.27841 | 37.34660 | 2517 ft | 212 kts | 233° |
| 2026-05-06 15:23 | 19.27171 | 37.33350 | 2525 ft | 200 kts | 261° |
| 2026-05-06 15:23 | 19.27111 | 37.31918 | 2539 ft | 191 kts | 284° |
| 2026-05-06 15:24 | 19.27554 | 37.30661 | 2523 ft | 177 kts | 307° |
| 2026-05-06 15:24 | 19.28248 | 37.29646 | 2521 ft | 164 kts | 309° |
| 2026-05-06 15:24 | 19.28895 | 37.28681 | 2531 ft | 158 kts | 310° |
| 2026-05-06 15:24 | 19.29528 | 37.27743 | 2535 ft | 155 kts | 310° |
| 2026-05-06 15:25 | 19.30144 | 37.26861 | 2514 ft | 143 kts | 317° |
| 2026-05-06 15:25 | 19.30955 | 37.26383 | 2452 ft | 134 kts | 353° |
| 2026-05-06 15:25 | 19.31862 | 37.26267 | 2319 ft | 128 kts | 346° |
| 2026-05-06 15:25 | 19.32687 | 37.25938 | 2127 ft | 127 kts | 348° |
| 2026-05-06 15:26 | 19.33531 | 37.25727 | 1948 ft | 121 kts | 349° |
| 2026-05-06 15:26 | 19.34319 | 37.25538 | 1815 ft | 117 kts | 349° |
| 2026-05-06 15:26 | 19.35103 | 37.25352 | 1664 ft | 115 kts | 349° |
| 2026-05-06 15:26 | 19.35879 | 37.25170 | 1499 ft | 115 kts | 348° |
| 2026-05-06 15:27 | 19.36687 | 37.24980 | 1359 ft | 121 kts | 349° |
| 2026-05-06 15:27 | 19.37514 | 37.24785 | 1184 ft | 121 kts | 350° |
| 2026-05-06 15:27 | 19.38302 | 37.24598 | 1044 ft | 122 kts | 351° |
| 2026-05-06 15:27 | 19.39146 | 37.24402 | 866 ft | 128 kts | 349° |
| 2026-05-06 15:28 | 19.39997 | 37.24201 | 698 ft | 125 kts | 350° |
| 2026-05-06 15:28 | 19.40824 | 37.23992 | 498 ft | 120 kts | 352° |
| 2026-05-06 15:28 | 19.41628 | 37.23816 | 322 ft | 122 kts | 350° |
| 2026-05-06 15:28 | 19.42463 | 37.23615 | 178 ft | 123 kts | 351° |
| 2026-05-06 15:29 | 19.43264 | 37.23431 | 113 ft | 111 kts | 350° |
| 2026-05-06 15:29 | 19.43895 | 37.23282 | 113 ft | 69 kts | 347° |
| 2026-05-06 15:29 | 19.44208 | 37.23208 | 112 ft | 39 kts | 348° |
| 2026-05-06 15:29 | 19.44384 | 37.23172 | 112 ft | 14 kts | 355° |
| 2026-05-06 15:30 | 19.44457 | 37.23193 | 112 ft | 8 kts | 335° |
| 2026-05-06 15:30 | 19.44459 | 37.23188 | 113 ft | 0 kts | 293° |
| 2026-05-06 15:30 | 19.44458 | 37.23173 | 113 ft | 4 kts | 254° |
| 2026-05-06 15:30 | 19.44420 | 37.23156 | 112 ft | 10 kts | 171° |
| 2026-05-06 15:31 | 19.44331 | 37.23179 | 112 ft | 17 kts | 167° |
| 2026-05-06 15:31 | 19.44212 | 37.23207 | 112 ft | 24 kts | 167° |
| 2026-05-06 15:31 | 19.44047 | 37.23246 | 112 ft | 31 kts | 168° |
| 2026-05-06 15:32 | 19.43627 | 37.23345 | 112 ft | 32 kts | 167° |
| 2026-05-06 15:32 | 19.43471 | 37.23383 | 112 ft | 14 kts | 160° |
| 2026-05-06 15:32 | 19.43457 | 37.23458 | 110 ft | 11 kts | 75° |
| 2026-05-06 15:32 | 19.43473 | 37.23537 | 141 ft | 11 kts | 77° |
| 2026-05-06 15:33 | 19.43485 | 37.23594 | 138 ft | 7 kts | 77° |
| 2026-05-06 15:33 | 19.43486 | 37.23598 | 138 ft | 0 kts | 77° |
| 2026-05-06 15:33 | 19.43489 | 37.23613 | 142 ft | 4 kts | 79° |
| 2026-05-06 15:34 | 19.43492 | 37.23629 | 141 ft | 1 kts | 78° |
| 2026-05-06 15:34 | 19.43496 | 37.23649 | 144 ft | 4 kts | 78° |
| 2026-05-06 15:34 | 19.43503 | 37.23686 | 141 ft | 6 kts | 77° |
| 2026-05-06 15:34 | 19.43498 | 37.23713 | 141 ft | 0 kts | 127° |
| 2026-05-06 15:35 | 19.43488 | 37.23717 | 141 ft | 4 kts | 164° |
| 2026-05-06 15:35 | 19.43464 | 37.23721 | 141 ft | 2 kts | 168° |
| 2026-05-06 15:35 | 19.43463 | 37.23721 | 141 ft | 0 kts | 168° |